This is the latest recevied weather packets stored in our database for station/object K9JVA. If no packets are shown the sender has not sent any weather packets the latest 10 day(s).
| Time | Temp. | Humidity | Pressure | Rain* | Wind** | Luminosity | Snow |
|---|---|---|---|---|---|---|---|
| 1777451585 | 14.44° C | 94% | 1010.8 hPa | 0 mm | - | - | - |
| 1777450087 | 15° C | 94% | 1011.1 hPa | 0 mm | - | - | - |
| 1777449185 | 15° C | 94% | 1011.1 hPa | 0 mm | - | - | - |
| 1777448226 | 15° C | 94% | 1011.9 hPa | 0 mm | - | - | - |
| 1777439708 | 16.67° C | 82% | 1012.1 hPa | 0 mm | - | - | - |
| 1777436889 | 16.11° C | 84% | 1011.7 hPa | 0 mm | - | - | - |
| 1777434731 | 16.67° C | 82% | 1011.9 hPa | 0 mm | - | - | - |
| 1777433832 | 16.67° C | 82% | 1012.1 hPa | 0 mm | - | - | - |
| 1777433231 | 16.67° C | 82% | 1012.4 hPa | 0 mm | - | - | - |
| 1777431971 | 16.67° C | 81% | 1013.3 hPa | 0 mm | - | - | - |
| 1777431672 | 16.67° C | 81% | 1013.5 hPa | 0 mm | - | - | - |
| 1777429514 | 17.22° C | 79% | 1013.6 hPa | 0 mm | - | - | - |
| 1777428013 | 17.22° C | 79% | 1013.7 hPa | 0 mm | - | - | - |
| 1777427412 | 17.78° C | 78% | 1013.4 hPa | 0 mm | - | - | - |
| 1777426094 | 17.78° C | 76% | 1013.3 hPa | 0 mm | - | - | - |
| 1777425193 | 18.33° C | 75% | 1013.1 hPa | 0 mm | - | - | - |
| 1777423635 | 18.89° C | 72% | 1013.3 hPa | 0 mm | - | - | - |
| 1777421236 | 20.56° C | 68% | 1012.9 hPa | 0 mm | - | - | - |
| 1777420937 | 21.11° C | 67% | 1012.9 hPa | 0 mm | - | - | - |
| 1777420358 | 21.11° C | 66% | 1013.2 hPa | 0 mm | - | - | - |
| 1777418562 | 22.22° C | 62% | 1013 hPa | 0 mm | - | - | - |
| 1777415896 | 23.33° C | 62% | 1011.4 hPa | 0 mm | - | - | - |
| 1777415597 | 23.33° C | 62% | 1011.4 hPa | 0 mm | - | - | - |
| 1777415298 | 23.33° C | 62% | 1012 hPa | 0 mm | - | - | - |
| 1777413737 | 23.33° C | 61% | 1012.8 hPa | 0 mm | - | - | - |
* Rain since midnight (hover to see other rain measurements)
** Current wind speed in m/s (hover to see current wind gust speed)